createdAt,value
2018-06-21T00:01:12.239Z,85.90
2018-06-21T00:03:46.857Z,86.20
2018-06-21T00:06:15.348Z,86.20
2018-06-21T00:08:44.162Z,86.80
2018-06-21T00:11:12.651Z,86.90
2018-06-21T00:13:41.104Z,86.40
2018-06-21T00:16:09.641Z,86.20
2018-06-21T00:18:54.907Z,86.20
2018-06-21T00:23:59.021Z,87.00
2018-06-21T00:26:27.395Z,87.40
2018-06-21T00:28:55.963Z,86.60
2018-06-21T00:31:24.335Z,86.00
2018-06-21T00:36:32.916Z,85.80
2018-06-21T00:39:01.274Z,86.10
2018-06-21T00:41:29.719Z,86.20
2018-06-21T00:43:58.799Z,86.20
2018-06-21T00:46:27.223Z,86.10
2018-06-21T00:48:55.924Z,86.60
2018-06-21T00:51:24.405Z,87.40
2018-06-21T00:53:52.850Z,88.10
2018-06-21T00:58:50.061Z,88.10
2018-06-21T01:01:18.855Z,89.50
2018-06-21T01:03:47.737Z,89.50
2018-06-21T01:06:16.742Z,89.00
2018-06-21T01:08:45.276Z,88.10
2018-06-21T01:11:14.434Z,87.50
2018-06-21T01:13:43.842Z,87.90
2018-06-21T01:16:12.350Z,89.20
2018-06-21T01:18:41.160Z,90.00
2018-06-21T01:21:09.940Z,90.10
2018-06-21T01:23:38.345Z,89.70
2018-06-21T01:26:06.775Z,90.10
2018-06-21T01:28:35.191Z,90.00
2018-06-21T01:31:03.617Z,90.00
2018-06-21T01:33:32.068Z,89.70
2018-06-21T01:36:00.522Z,89.80
2018-06-21T01:38:28.965Z,89.20
2018-06-21T01:40:58.100Z,90.00
2018-06-21T01:43:26.493Z,90.40
2018-06-21T01:48:23.106Z,90.50
2018-06-21T01:50:51.638Z,90.90
2018-06-21T01:53:20.364Z,90.70
2018-06-21T01:55:48.826Z,90.80
2018-06-21T01:58:17.258Z,90.80
2018-06-21T02:00:45.773Z,90.90
2018-06-21T02:03:28.307Z,90.80
2018-06-21T02:05:57.546Z,90.60
2018-06-21T02:08:26.007Z,90.70
2018-06-21T02:10:54.807Z,91.00
2018-06-21T02:13:23.549Z,91.10
2018-06-21T02:15:51.954Z,91.10
2018-06-21T02:18:20.366Z,91.20
2018-06-21T02:20:48.767Z,91.20
2018-06-21T02:23:17.553Z,91.00
2018-06-21T02:28:22.018Z,90.90
2018-06-21T02:30:50.940Z,90.90
2018-06-21T02:33:20.108Z,91.10
2018-06-21T02:35:49.176Z,91.00
2018-06-21T02:38:18.266Z,90.90
2018-06-21T02:40:47.238Z,91.90
2018-06-21T02:43:15.908Z,92.30
2018-06-21T02:45:44.594Z,92.40
2018-06-21T02:48:21.012Z,92.30
2018-06-21T02:50:50.147Z,92.80
2018-06-21T02:53:19.377Z,91.80
2018-06-21T02:55:48.682Z,92.40
2018-06-21T02:58:17.747Z,92.10
2018-06-21T03:00:46.669Z,92.40
2018-06-21T03:03:15.185Z,92.10
2018-06-21T03:05:43.601Z,92.00
2018-06-21T03:10:47.971Z,92.10
2018-06-21T03:13:16.453Z,91.90
2018-06-21T03:15:45.255Z,91.70
2018-06-21T03:18:14.205Z,91.80
2018-06-21T03:20:42.646Z,92.20
2018-06-21T03:23:11.132Z,92.00
2018-06-21T03:25:39.736Z,92.10
2018-06-21T03:28:08.337Z,92.20
2018-06-21T03:30:36.822Z,92.10
2018-06-21T03:33:05.544Z,92.40
2018-06-21T03:35:34.143Z,92.40
2018-06-21T03:38:02.598Z,92.40
2018-06-21T03:40:31.333Z,92.10
2018-06-21T03:42:59.751Z,92.10
2018-06-21T03:45:28.181Z,92.20
2018-06-21T03:47:56.638Z,92.20
2018-06-21T03:52:53.293Z,91.80
2018-06-21T03:55:21.746Z,92.00
2018-06-21T03:57:50.164Z,91.90
2018-06-21T04:00:18.732Z,92.10
2018-06-21T04:02:47.161Z,91.60
2018-06-21T04:05:15.644Z,92.30
2018-06-21T04:07:44.133Z,92.50
2018-06-21T04:10:12.724Z,92.00
2018-06-21T04:12:41.209Z,92.00
2018-06-21T04:15:09.762Z,92.40
2018-06-21T04:17:47.866Z,92.10
2018-06-21T04:20:16.334Z,92.10
2018-06-21T04:22:44.765Z,91.80
2018-06-21T04:25:13.181Z,91.70
2018-06-21T04:27:41.623Z,91.80
2018-06-21T04:30:10.091Z,91.50
2018-06-21T04:32:38.522Z,91.60
2018-06-21T04:35:06.928Z,91.50
2018-06-21T04:37:35.390Z,91.60
2018-06-21T04:40:26.528Z,91.30
2018-06-21T04:42:55.435Z,91.40
2018-06-21T04:45:23.978Z,91.50
2018-06-21T04:47:52.379Z,91.50
2018-06-21T04:50:20.911Z,91.50
2018-06-21T04:52:49.320Z,90.70
2018-06-21T04:55:17.711Z,90.60
2018-06-21T04:57:46.153Z,90.60
2018-06-21T05:00:14.609Z,90.40
2018-06-21T05:02:43.050Z,90.40
2018-06-21T05:05:11.802Z,90.10
2018-06-21T05:07:40.522Z,90.10
2018-06-21T05:10:08.972Z,89.40
2018-06-21T05:12:37.378Z,88.50
2018-06-21T05:15:05.879Z,88.10
2018-06-21T05:17:34.742Z,86.90
2018-06-21T05:20:03.292Z,86.20
2018-06-21T05:22:31.715Z,86.50
2018-06-21T05:25:01.113Z,86.40
2018-06-21T05:27:29.646Z,85.60
2018-06-21T05:29:58.235Z,85.70
2018-06-21T05:32:26.668Z,85.20
2018-06-21T05:34:55.171Z,84.60
2018-06-21T05:37:23.723Z,84.40
2018-06-21T05:39:52.506Z,84.20
2018-06-21T05:42:21.188Z,84.10
2018-06-21T05:44:49.979Z,82.60
2018-06-21T05:47:18.418Z,82.00
2018-06-21T05:49:47.457Z,81.70
2018-06-21T05:52:16.454Z,80.80
2018-06-21T05:54:44.763Z,80.60
2018-06-21T05:57:13.570Z,81.40
2018-06-21T05:59:41.937Z,80.80
2018-06-21T06:02:10.339Z,80.20
2018-06-21T06:04:38.828Z,80.60
2018-06-21T06:07:07.254Z,80.30
2018-06-21T06:09:35.715Z,79.70
2018-06-21T06:12:04.137Z,79.30
2018-06-21T06:14:32.587Z,78.50
2018-06-21T06:17:01.265Z,79.20
2018-06-21T06:19:29.747Z,78.80
2018-06-21T06:21:58.183Z,78.80
2018-06-21T06:24:26.548Z,78.60
2018-06-21T06:26:54.970Z,78.60
2018-06-21T06:29:23.362Z,78.70
2018-06-21T06:31:53.231Z,79.00
2018-06-21T06:34:21.643Z,78.90
2018-06-21T06:36:50.059Z,79.50
2018-06-21T06:39:20.006Z,78.40
2018-06-21T06:41:51.499Z,78.40
2018-06-21T06:44:20.197Z,77.30
2018-06-21T06:46:48.641Z,76.80
2018-06-21T06:49:17.077Z,76.30
2018-06-21T06:51:45.529Z,76.60
2018-06-21T06:54:14.052Z,77.00
2018-06-21T06:56:42.488Z,77.30
2018-06-21T06:59:10.829Z,77.70
2018-06-21T07:01:39.482Z,77.90
2018-06-21T07:04:07.896Z,78.40
2018-06-21T07:06:36.317Z,78.20
2018-06-21T07:09:07.383Z,77.70
2018-06-21T07:11:35.790Z,76.20
2018-06-21T07:14:04.286Z,76.30
2018-06-21T07:16:32.653Z,75.80
2018-06-21T07:19:01.423Z,74.80
2018-06-21T07:21:29.841Z,75.30
2018-06-21T07:23:58.335Z,74.90
2018-06-21T07:26:27.138Z,74.80
2018-06-21T07:28:55.561Z,74.10
2018-06-21T07:31:24.302Z,74.10
2018-06-21T07:33:52.608Z,74.60
2018-06-21T07:36:21.304Z,73.50
2018-06-21T07:38:49.666Z,73.20
2018-06-21T07:41:18.068Z,73.20
2018-06-21T07:46:14.641Z,73.20
2018-06-21T07:48:43.043Z,73.50
2018-06-21T07:51:11.451Z,72.40
2018-06-21T07:53:40.015Z,73.80
2018-06-21T07:56:11.930Z,72.20
2018-06-21T07:58:40.290Z,71.00
2018-06-21T08:01:08.973Z,71.50
2018-06-21T08:03:37.392Z,71.10
2018-06-21T08:06:05.961Z,69.70
2018-06-21T08:08:34.300Z,67.10
2018-06-21T08:11:02.677Z,65.40
2018-06-21T08:13:31.149Z,64.20
2018-06-21T08:15:59.870Z,64.30
2018-06-21T08:18:28.326Z,64.00
2018-06-21T08:20:56.705Z,62.30
2018-06-21T08:25:54.040Z,60.40
2018-06-21T08:28:22.415Z,59.10
2018-06-21T08:30:51.177Z,58.30
2018-06-21T08:33:19.656Z,57.60
2018-06-21T08:35:48.089Z,58.90
2018-06-21T08:38:16.578Z,57.70
2018-06-21T08:40:52.459Z,59.20
2018-06-21T08:43:21.207Z,59.20
2018-06-21T08:45:49.801Z,58.20
2018-06-21T08:48:18.419Z,57.10
2018-06-21T08:50:46.849Z,54.50
2018-06-21T08:53:15.480Z,55.40
2018-06-21T08:55:44.055Z,55.30
2018-06-21T08:58:12.832Z,56.30
2018-06-21T09:00:41.693Z,56.40
2018-06-21T09:03:11.047Z,55.70
2018-06-21T09:05:39.765Z,54.80
2018-06-21T09:10:36.432Z,55.90
2018-06-21T09:13:04.968Z,55.60
2018-06-21T09:15:33.863Z,56.30
2018-06-21T09:18:02.544Z,55.30
2018-06-21T09:20:31.254Z,55.10
2018-06-21T09:22:59.981Z,54.10
2018-06-21T09:25:34.848Z,54.30
2018-06-21T09:28:03.276Z,54.30
2018-06-21T09:30:32.353Z,54.40
2018-06-21T09:35:29.366Z,52.70
2018-06-21T09:38:03.054Z,51.40
2018-06-21T09:40:37.057Z,50.30
2018-06-21T09:43:10.873Z,49.70
2018-06-21T09:45:50.457Z,49.40
2018-06-21T09:48:24.262Z,48.40
2018-06-21T09:50:52.914Z,49.10
2018-06-21T09:53:21.689Z,49.50
2018-06-21T09:55:50.451Z,48.30
2018-06-21T09:58:18.910Z,47.70
2018-06-21T10:00:52.474Z,48.70
2018-06-21T10:03:21.155Z,49.40
2018-06-21T10:05:55.965Z,50.90
2018-06-21T10:08:24.414Z,52.00
2018-06-21T10:10:53.675Z,51.00
2018-06-21T10:13:22.089Z,49.70
2018-06-21T10:15:50.830Z,49.30
2018-06-21T10:18:19.174Z,48.80
2018-06-21T10:20:47.832Z,47.90
2018-06-21T10:23:16.174Z,47.50
2018-06-21T10:25:44.744Z,46.80
2018-06-21T10:28:21.560Z,47.60
2018-06-21T10:30:50.024Z,48.60
2018-06-21T10:33:18.754Z,49.10
2018-06-21T10:35:47.589Z,46.30
2018-06-21T10:38:16.001Z,46.70
2018-06-21T10:40:44.403Z,46.30
2018-06-21T10:43:12.780Z,46.30
2018-06-21T10:45:41.217Z,46.50
2018-06-21T10:48:09.585Z,46.30
2018-06-21T10:50:52.177Z,47.40
2018-06-21T10:53:20.616Z,47.70
2018-06-21T10:55:49.047Z,45.70
2018-06-21T10:58:17.459Z,45.30
2018-06-21T11:00:46.208Z,45.30
2018-06-21T11:03:14.722Z,46.70
2018-06-21T11:05:43.134Z,46.70
2018-06-21T11:08:11.536Z,47.70
2018-06-21T11:10:39.942Z,48.50
2018-06-21T11:13:08.596Z,48.10
2018-06-21T11:15:37.016Z,47.10
2018-06-21T11:18:05.868Z,45.80
2018-06-21T11:20:34.432Z,45.50
2018-06-21T11:23:03.089Z,44.80
2018-06-21T11:25:31.559Z,44.70
2018-06-21T11:28:00.243Z,44.60
2018-06-21T11:30:28.888Z,45.10
2018-06-21T11:32:58.820Z,44.10
2018-06-21T11:35:27.700Z,45.70
2018-06-21T11:37:56.103Z,46.00
2018-06-21T11:40:24.577Z,44.30
2018-06-21T11:42:53.086Z,45.40
2018-06-21T11:45:21.494Z,45.10
2018-06-21T11:47:50.002Z,44.60
2018-06-21T11:50:18.779Z,45.20
2018-06-21T11:52:47.206Z,45.20
2018-06-21T11:55:15.586Z,44.80
2018-06-21T11:57:44.434Z,44.90
2018-06-21T12:00:12.846Z,44.90
2018-06-21T12:02:41.321Z,44.30
2018-06-21T12:07:38.277Z,43.60
2018-06-21T12:10:06.805Z,44.60
2018-06-21T12:12:35.252Z,45.90
2018-06-21T12:15:03.802Z,46.50
2018-06-21T12:17:32.240Z,47.20
2018-06-21T12:20:00.741Z,46.60
2018-06-21T12:22:29.181Z,46.50
2018-06-21T12:24:57.773Z,43.70
2018-06-21T12:27:26.173Z,43.90
2018-06-21T12:29:54.549Z,44.00
2018-06-21T12:34:51.107Z,45.30
2018-06-21T12:37:19.451Z,44.80
2018-06-21T12:39:47.881Z,46.60
2018-06-21T12:44:45.003Z,45.60
2018-06-21T12:47:13.407Z,46.60
2018-06-21T12:49:41.959Z,47.00
2018-06-21T12:52:10.719Z,48.30
2018-06-21T12:54:39.174Z,49.60
2018-06-21T12:57:07.612Z,51.30
2018-06-21T12:59:36.091Z,50.70
2018-06-21T13:02:04.589Z,50.00
2018-06-21T13:04:33.247Z,49.30
2018-06-21T13:07:01.703Z,49.40
2018-06-21T13:09:41.265Z,49.10
2018-06-21T13:12:24.404Z,49.20
2018-06-21T13:14:53.099Z,48.10
2018-06-21T13:17:21.464Z,48.20
2018-06-21T13:19:50.069Z,48.90
2018-06-21T13:22:18.842Z,51.10
2018-06-21T13:24:47.281Z,51.20
2018-06-21T13:27:15.909Z,50.50
2018-06-21T13:29:44.750Z,48.90
2018-06-21T13:34:41.612Z,49.50
2018-06-21T13:37:10.172Z,50.00
2018-06-21T13:39:38.541Z,51.10
2018-06-21T13:42:07.165Z,51.40
2018-06-21T13:44:35.886Z,51.60
2018-06-21T13:47:04.637Z,51.00
2018-06-21T13:49:33.139Z,50.40
2018-06-21T13:52:01.809Z,50.70
2018-06-21T13:54:30.209Z,50.60
2018-06-21T13:56:58.822Z,50.40
2018-06-21T13:59:27.257Z,51.50
2018-06-21T14:01:55.650Z,51.90
2018-06-21T14:04:24.099Z,52.10
2018-06-21T14:06:52.449Z,52.80
2018-06-21T14:09:21.246Z,53.60
2018-06-21T14:11:49.668Z,53.40
2018-06-21T14:14:18.105Z,54.30
2018-06-21T14:16:46.526Z,54.80
2018-06-21T14:19:15.042Z,54.40
2018-06-21T14:21:43.531Z,54.20
2018-06-21T14:24:13.321Z,53.40
2018-06-21T14:26:42.228Z,53.80
2018-06-21T14:31:38.730Z,52.40
2018-06-21T14:34:07.052Z,52.80
2018-06-21T14:39:04.748Z,53.10
2018-06-21T14:41:33.079Z,53.50
2018-06-21T14:44:01.520Z,54.00
2018-06-21T14:46:30.118Z,54.20
2018-06-21T14:48:58.528Z,55.60
2018-06-21T14:51:26.969Z,56.60
2018-06-21T14:53:55.371Z,57.50
2018-06-21T14:58:51.925Z,56.30
2018-06-21T15:01:20.603Z,54.80
2018-06-21T15:03:49.043Z,56.00
2018-06-21T15:06:17.425Z,55.70
2018-06-21T15:08:45.809Z,55.90
2018-06-21T15:11:14.267Z,55.60
2018-06-21T15:13:47.124Z,56.10
2018-06-21T15:16:17.072Z,57.20
2018-06-21T15:18:45.685Z,58.20
2018-06-21T15:21:14.766Z,58.80
2018-06-21T15:23:44.559Z,55.80
2018-06-21T15:26:13.228Z,53.80
2018-06-21T15:31:11.298Z,52.90
2018-06-21T15:33:40.250Z,53.30
2018-06-21T15:36:09.233Z,54.90
2018-06-21T15:38:37.772Z,55.70
2018-06-21T15:41:06.249Z,55.70
2018-06-21T15:43:34.696Z,54.80
2018-06-21T15:46:03.121Z,54.50
2018-06-21T15:48:31.562Z,55.40
2018-06-21T15:50:59.932Z,56.30
2018-06-21T15:53:28.409Z,55.80
2018-06-21T15:55:56.877Z,56.20
2018-06-21T15:58:25.491Z,56.80
2018-06-21T16:00:53.871Z,55.70
2018-06-21T16:03:22.285Z,56.20
2018-06-21T16:05:50.880Z,57.10
2018-06-21T16:08:19.252Z,57.00
2018-06-21T16:10:47.584Z,56.50
2018-06-21T16:13:16.841Z,57.50
2018-06-21T16:15:46.539Z,57.40
2018-06-21T16:20:45.133Z,56.50
2018-06-21T16:23:13.688Z,57.20
2018-06-21T16:25:42.102Z,57.70
2018-06-21T16:28:10.593Z,57.80
2018-06-21T16:30:39.288Z,57.80
2018-06-21T16:33:07.839Z,57.00
2018-06-21T16:35:36.314Z,56.90
2018-06-21T16:38:04.743Z,56.30
2018-06-21T16:40:33.189Z,56.60
2018-06-21T16:43:03.704Z,57.20
2018-06-21T16:45:32.147Z,56.80
2018-06-21T16:50:28.573Z,56.80
2018-06-21T16:52:57.272Z,56.90
2018-06-21T16:55:26.081Z,56.30
2018-06-21T16:57:54.454Z,55.70
2018-06-21T17:00:22.946Z,55.10
2018-06-21T17:02:51.539Z,53.90
2018-06-21T17:10:16.402Z,54.30
2018-06-21T17:12:44.760Z,53.70
2018-06-21T17:15:13.221Z,54.70
2018-06-21T17:17:41.591Z,54.60
2018-06-21T17:20:10.007Z,54.10
2018-06-21T17:22:38.640Z,54.00
2018-06-21T17:25:07.014Z,54.50
2018-06-21T17:27:35.363Z,54.10
2018-06-21T17:30:03.877Z,54.90
2018-06-21T17:32:32.482Z,54.10
2018-06-21T17:35:01.099Z,53.70
2018-06-21T17:37:29.659Z,54.30
2018-06-21T17:39:58.308Z,55.10
2018-06-21T17:42:26.735Z,55.30
2018-06-21T17:44:55.203Z,55.90
2018-06-21T17:47:23.599Z,56.70
2018-06-21T17:49:52.857Z,56.10
2018-06-21T17:52:21.310Z,56.00
2018-06-21T17:54:49.704Z,57.10
2018-06-21T17:57:18.103Z,57.60
2018-06-21T17:59:46.692Z,57.60
2018-06-21T18:02:15.067Z,57.20
2018-06-21T18:04:43.421Z,56.50
2018-06-21T18:07:11.825Z,56.50
2018-06-21T18:09:40.216Z,56.90
2018-06-21T18:12:08.656Z,57.80
2018-06-21T18:14:37.119Z,59.70
2018-06-21T18:17:05.568Z,59.70
2018-06-21T18:19:34.110Z,60.20
2018-06-21T18:31:17.444Z,62.00
2018-06-21T18:33:45.908Z,63.90
2018-06-21T18:36:14.416Z,64.30
2018-06-21T18:38:42.815Z,64.10
2018-06-21T18:41:11.169Z,64.20
2018-06-21T18:43:39.572Z,64.20
2018-06-21T18:46:07.931Z,64.00
2018-06-21T18:48:36.318Z,64.20
2018-06-21T18:51:04.744Z,63.90
2018-06-21T18:53:33.170Z,63.10
2018-06-21T18:58:41.621Z,63.40
2018-06-21T19:01:10.021Z,62.90
2018-06-21T19:03:38.439Z,62.90
2018-06-21T19:06:11.061Z,63.30
2018-06-21T19:08:44.772Z,62.80
2018-06-21T19:11:18.592Z,62.60
2018-06-21T19:13:47.008Z,62.70
2018-06-21T19:16:15.495Z,62.20
2018-06-21T19:18:43.877Z,62.50
2018-06-21T19:21:12.260Z,62.90
2018-06-21T19:23:40.633Z,63.00
2018-06-21T19:26:09.031Z,63.60
2018-06-21T19:28:37.392Z,63.30
2018-06-21T19:31:06.162Z,64.60
2018-06-21T19:33:34.554Z,63.70
2018-06-21T19:36:02.903Z,63.60
2018-06-21T19:38:31.302Z,64.30
2018-06-21T19:40:59.718Z,64.50
2018-06-21T19:43:28.397Z,64.30
2018-06-21T19:45:56.741Z,64.10
2018-06-21T19:48:25.089Z,64.00
2018-06-21T19:50:53.523Z,64.20
2018-06-21T19:53:21.846Z,64.40
2018-06-21T19:55:50.293Z,64.20
2018-06-21T19:58:18.681Z,64.10
2018-06-21T20:00:47.175Z,64.20
2018-06-21T20:03:15.605Z,64.40
2018-06-21T20:05:45.841Z,64.30
2018-06-21T20:10:42.698Z,65.00
2018-06-21T20:13:11.086Z,64.80
2018-06-21T20:15:52.596Z,64.90
2018-06-21T20:18:21.715Z,64.50
2018-06-21T20:20:50.863Z,64.50
2018-06-21T20:23:20.511Z,64.80
2018-06-21T20:25:48.849Z,64.70
2018-06-21T20:28:17.728Z,64.80
2018-06-21T20:30:46.140Z,65.00
2018-06-21T20:33:14.560Z,65.60
2018-06-21T20:35:42.928Z,66.20
2018-06-21T20:38:11.696Z,66.00
2018-06-21T20:40:40.058Z,66.40
2018-06-21T20:43:08.503Z,65.60
2018-06-21T20:45:36.884Z,65.20
2018-06-21T20:48:05.273Z,64.80
2018-06-21T20:50:33.751Z,63.80
2018-06-21T20:53:02.115Z,63.10
2018-06-21T20:55:30.468Z,62.60
2018-06-21T20:57:58.843Z,62.60
2018-06-21T21:00:27.217Z,62.50
2018-06-21T21:05:25.483Z,62.80
2018-06-21T21:07:53.846Z,63.00
2018-06-21T21:10:22.278Z,63.60
2018-06-21T21:12:50.602Z,63.90
2018-06-21T21:15:18.948Z,64.80
2018-06-21T21:17:47.267Z,65.30
2018-06-21T21:22:43.761Z,65.30
2018-06-21T21:25:12.109Z,65.70
2018-06-21T21:27:40.492Z,66.10
2018-06-21T21:30:09.426Z,66.70
2018-06-21T21:32:37.802Z,66.70
2018-06-21T21:35:06.166Z,66.40
2018-06-21T21:37:35.042Z,66.40
2018-06-21T21:40:04.751Z,67.20
2018-06-21T21:42:34.423Z,67.40
2018-06-21T21:45:02.777Z,67.40
2018-06-21T21:47:31.262Z,67.30
2018-06-21T21:49:59.636Z,67.50
2018-06-21T21:52:28.026Z,67.80
2018-06-21T21:54:56.344Z,68.40
2018-06-21T21:57:24.712Z,68.80
2018-06-21T21:59:53.053Z,68.70
2018-06-21T22:02:21.468Z,68.20
2018-06-21T22:04:49.818Z,68.30
2018-06-21T22:07:18.172Z,68.40
2018-06-21T22:09:46.554Z,68.80
2018-06-21T22:12:14.996Z,69.10
2018-06-21T22:14:43.316Z,69.70
2018-06-21T22:17:11.750Z,69.80
2018-06-21T22:19:40.082Z,69.50
2018-06-21T22:22:08.459Z,69.20
2018-06-21T22:24:36.803Z,69.90
2018-06-21T22:27:05.173Z,70.20
2018-06-21T22:29:33.626Z,70.00
2018-06-21T22:32:02.015Z,69.90
2018-06-21T22:34:30.351Z,70.10
2018-06-21T22:36:58.752Z,70.20
2018-06-21T22:39:27.372Z,70.70
2018-06-21T22:41:55.985Z,70.20
2018-06-21T22:44:24.452Z,70.50
2018-06-21T22:46:53.107Z,70.30
2018-06-21T22:49:21.460Z,70.20
2018-06-21T22:51:49.836Z,70.70
2018-06-21T22:54:18.156Z,70.70
2018-06-21T22:56:46.638Z,70.60
2018-06-21T22:59:14.991Z,70.70
2018-06-21T23:01:43.393Z,70.20
2018-06-21T23:04:11.721Z,69.90
2018-06-21T23:09:08.176Z,69.80
2018-06-21T23:11:36.582Z,69.10
2018-06-21T23:14:04.942Z,69.10
2018-06-21T23:16:33.388Z,68.60
2018-06-21T23:19:13.061Z,68.60
2018-06-21T23:21:41.457Z,68.60
2018-06-21T23:24:09.780Z,68.50
2018-06-21T23:26:38.250Z,68.50
2018-06-21T23:29:06.550Z,68.30
2018-06-21T23:31:34.934Z,69.00
2018-06-21T23:34:03.318Z,68.00
2018-06-21T23:36:31.702Z,68.80
2018-06-21T23:39:00.105Z,67.80
2018-06-21T23:41:28.812Z,67.50
2018-06-21T23:43:57.168Z,67.70
2018-06-21T23:46:25.518Z,68.20
2018-06-21T23:48:53.888Z,67.50
2018-06-21T23:51:22.261Z,67.20
2018-06-21T23:53:50.955Z,67.40
2018-06-21T23:58:47.368Z,67.50
